createdAt,value
2018-06-18T00:00:52.451Z,9.25
2018-06-18T00:01:56.203Z,8.88
2018-06-18T00:03:00.115Z,7.87
2018-06-18T00:04:04.167Z,8.78
2018-06-18T00:05:08.259Z,9.18
2018-06-18T00:06:11.999Z,9.25
2018-06-18T00:07:15.898Z,9.10
2018-06-18T00:08:19.992Z,8.73
2018-06-18T00:09:24.042Z,9.10
2018-06-18T00:10:28.179Z,9.13
2018-06-18T00:11:32.174Z,8.80
2018-06-18T00:12:36.204Z,8.03
2018-06-18T00:13:39.912Z,9.28
2018-06-18T00:14:43.813Z,8.60
2018-06-18T00:15:47.915Z,8.93
2018-06-18T00:16:51.970Z,8.33
2018-06-18T00:17:56.064Z,9.13
2018-06-18T00:19:00.077Z,8.70
2018-06-18T00:20:04.136Z,9.60
2018-06-18T00:21:08.201Z,9.23
2018-06-18T00:22:17.764Z,8.73
2018-06-18T00:23:21.763Z,10.23
2018-06-18T00:24:25.774Z,8.43
2018-06-18T00:25:29.808Z,9.05
2018-06-18T00:26:33.870Z,9.95
2018-06-18T00:27:37.913Z,8.50
2018-06-18T00:28:41.961Z,8.95
2018-06-18T00:29:46.296Z,8.75
2018-06-18T00:30:50.352Z,9.05
2018-06-18T00:31:54.389Z,8.58
2018-06-18T00:32:58.483Z,8.68
2018-06-18T00:34:02.483Z,9.08
2018-06-18T00:35:06.512Z,9.43
2018-06-18T00:36:10.544Z,9.38
2018-06-18T00:37:14.619Z,9.20
2018-06-18T00:38:18.636Z,9.20
2018-06-18T00:39:22.646Z,8.55
2018-06-18T00:40:26.642Z,8.70
2018-06-18T00:41:30.394Z,8.70
2018-06-18T00:42:34.261Z,8.90
2018-06-18T00:43:38.315Z,8.23
2018-06-18T00:44:42.388Z,8.95
2018-06-18T00:45:46.399Z,10.18
2018-06-18T00:46:50.449Z,8.08
2018-06-18T00:47:54.417Z,8.70
2018-06-18T00:48:58.442Z,8.20
2018-06-18T00:50:02.480Z,8.83
2018-06-18T00:51:06.576Z,9.20
2018-06-18T00:52:10.591Z,8.85
2018-06-18T00:53:14.647Z,9.03
2018-06-18T00:54:18.743Z,8.80
2018-06-18T00:55:34.060Z,8.83
2018-06-18T00:56:38.086Z,9.65
2018-06-18T00:57:42.206Z,8.88
2018-06-18T00:58:46.228Z,8.68
2018-06-18T00:59:50.253Z,9.68
2018-06-18T01:00:54.285Z,10.65
2018-06-18T01:01:58.297Z,9.33
2018-06-18T01:03:02.369Z,9.95
2018-06-18T01:04:06.410Z,9.28
2018-06-18T01:05:10.465Z,9.48
2018-06-18T01:06:14.492Z,9.93
2018-06-18T01:07:18.543Z,9.83
2018-06-18T01:08:22.682Z,10.40
2018-06-18T01:09:26.734Z,10.08
2018-06-18T01:10:30.518Z,10.45
2018-06-18T01:11:34.526Z,10.72
2018-06-18T01:12:38.517Z,10.18
2018-06-18T01:13:42.553Z,10.18
2018-06-18T01:14:46.600Z,9.43
2018-06-18T01:15:50.615Z,9.30
2018-06-18T01:16:54.635Z,10.03
2018-06-18T01:17:58.655Z,10.20
2018-06-18T01:19:02.711Z,9.73
2018-06-18T01:20:06.810Z,10.20
2018-06-18T01:21:10.940Z,10.23
2018-06-18T01:22:14.967Z,9.53
2018-06-18T01:23:56.266Z,9.55
2018-06-18T01:25:03.749Z,9.63
2018-06-18T01:26:07.789Z,9.70
2018-06-18T01:27:11.898Z,9.70
2018-06-18T01:28:15.929Z,9.98
2018-06-18T01:29:19.824Z,9.03
2018-06-18T01:30:23.697Z,9.20
2018-06-18T01:31:27.781Z,8.40
2018-06-18T01:32:31.783Z,9.33
2018-06-18T01:33:36.078Z,8.83
2018-06-18T01:34:40.138Z,9.75
2018-06-18T01:35:44.193Z,8.58
2018-06-18T01:36:48.208Z,9.40
2018-06-18T01:37:52.203Z,9.28
2018-06-18T01:38:56.277Z,8.70
2018-06-18T01:40:00.281Z,9.95
2018-06-18T01:41:04.302Z,8.63
2018-06-18T01:42:08.311Z,10.13
2018-06-18T01:43:12.326Z,8.70
2018-06-18T01:44:16.449Z,9.88
2018-06-18T01:45:20.553Z,9.70
2018-06-18T01:46:24.607Z,8.40
2018-06-18T01:47:28.609Z,9.20
2018-06-18T01:48:32.634Z,8.35
2018-06-18T01:49:36.726Z,9.25
2018-06-18T01:50:40.714Z,8.80
2018-06-18T01:51:45.007Z,8.60
2018-06-18T01:52:49.119Z,9.20
2018-06-18T01:53:53.145Z,9.00
2018-06-18T01:54:57.172Z,8.85
2018-06-18T01:56:01.185Z,9.60
2018-06-18T01:57:05.266Z,9.23
2018-06-18T01:58:09.231Z,8.85
2018-06-18T01:59:13.254Z,8.93
2018-06-18T02:00:17.316Z,9.08
2018-06-18T02:01:21.410Z,9.80
2018-06-18T02:02:25.448Z,8.85
2018-06-18T02:03:29.582Z,8.75
2018-06-18T02:04:33.575Z,8.63
2018-06-18T02:05:37.615Z,9.43
2018-06-18T02:06:41.630Z,8.70
2018-06-18T02:07:45.689Z,9.40
2018-06-18T02:08:49.750Z,8.63
2018-06-18T02:09:54.011Z,8.70
2018-06-18T02:10:58.089Z,7.50
2018-06-18T02:12:02.108Z,7.78
2018-06-18T02:13:06.217Z,8.78
2018-06-18T02:14:11.187Z,7.65
2018-06-18T02:15:15.187Z,9.18
2018-06-18T02:16:19.292Z,8.38
2018-06-18T02:17:23.230Z,8.40
2018-06-18T02:18:27.285Z,9.18
2018-06-18T02:19:31.411Z,8.60
2018-06-18T02:20:35.403Z,8.68
2018-06-18T02:21:39.789Z,8.80
2018-06-18T02:22:43.874Z,8.78
2018-06-18T02:23:47.966Z,8.90
2018-06-18T02:24:51.991Z,9.20
2018-06-18T02:25:56.036Z,8.50
2018-06-18T02:27:05.561Z,8.08
2018-06-18T02:28:14.860Z,9.70
2018-06-18T02:29:24.462Z,8.95
2018-06-18T02:30:33.972Z,8.83
2018-06-18T02:31:43.284Z,9.40
2018-06-18T02:32:52.874Z,8.28
2018-06-18T02:34:02.300Z,8.50
2018-06-18T02:36:14.500Z,8.13
2018-06-18T02:37:23.957Z,9.10
2018-06-18T02:38:37.343Z,8.98
2018-06-18T02:39:46.718Z,7.50
2018-06-18T02:40:50.754Z,8.35
2018-06-18T02:41:54.794Z,8.13
2018-06-18T02:42:58.794Z,9.33
2018-06-18T02:44:02.826Z,8.48
2018-06-18T02:45:06.841Z,9.50
2018-06-18T02:46:11.001Z,8.90
2018-06-18T02:47:14.990Z,7.85
2018-06-18T02:49:29.402Z,9.10
2018-06-18T02:50:33.490Z,9.00
2018-06-18T02:51:37.982Z,8.05
2018-06-18T02:52:42.017Z,8.88
2018-06-18T02:53:46.037Z,8.13
2018-06-18T02:54:50.074Z,8.48
2018-06-18T02:55:54.137Z,9.40
2018-06-18T02:57:04.132Z,8.40
2018-06-18T02:58:08.158Z,9.55
2018-06-18T02:59:12.177Z,10.15
2018-06-18T03:00:16.441Z,7.83
2018-06-18T03:01:20.469Z,9.08
2018-06-18T03:02:24.469Z,9.25
2018-06-18T03:03:28.490Z,9.63
2018-06-18T03:04:32.612Z,8.68
2018-06-18T03:05:36.684Z,8.60
2018-06-18T03:06:40.663Z,9.05
2018-06-18T03:07:44.698Z,8.88
2018-06-18T03:08:48.670Z,8.75
2018-06-18T03:09:52.774Z,8.10
2018-06-18T03:10:56.767Z,8.23
2018-06-18T03:12:00.783Z,8.20
2018-06-18T03:13:04.798Z,8.63
2018-06-18T03:14:09.145Z,8.50
2018-06-18T03:15:13.159Z,8.50
2018-06-18T03:16:17.261Z,8.20
2018-06-18T03:17:21.276Z,8.68
2018-06-18T03:18:30.564Z,9.08
2018-06-18T03:19:39.845Z,9.03
2018-06-18T03:20:49.201Z,9.18
2018-06-18T03:21:58.802Z,10.05
2018-06-18T03:23:08.434Z,10.05
2018-06-18T03:24:17.910Z,9.33
2018-06-18T03:25:27.278Z,9.15
2018-06-18T03:26:36.659Z,9.33
2018-06-18T03:27:46.275Z,8.70
2018-06-18T03:28:55.754Z,8.33
2018-06-18T03:29:59.743Z,8.63
2018-06-18T03:31:03.815Z,8.70
2018-06-18T03:32:10.287Z,9.00
2018-06-18T03:33:14.288Z,9.40
2018-06-18T03:34:18.314Z,9.13
2018-06-18T03:35:22.363Z,9.13
2018-06-18T03:36:26.375Z,8.73
2018-06-18T03:37:30.375Z,9.50
2018-06-18T03:38:34.358Z,8.00
2018-06-18T03:39:38.459Z,8.90
2018-06-18T03:40:42.465Z,8.55
2018-06-18T03:41:48.539Z,8.70
2018-06-18T03:42:52.532Z,9.53
2018-06-18T03:44:02.229Z,8.40
2018-06-18T03:45:11.783Z,7.83
2018-06-18T03:46:15.813Z,9.10
2018-06-18T03:47:26.855Z,8.30
2018-06-18T03:48:30.893Z,8.90
2018-06-18T03:49:34.892Z,8.78
2018-06-18T03:50:39.039Z,8.98
2018-06-18T03:51:43.146Z,9.10
2018-06-18T03:52:47.558Z,8.45
2018-06-18T03:53:51.561Z,8.88
2018-06-18T03:54:58.049Z,8.75
2018-06-18T03:56:02.113Z,8.43
2018-06-18T03:57:06.231Z,9.05
2018-06-18T03:58:10.235Z,8.65
2018-06-18T03:59:14.319Z,7.83
2018-06-18T04:00:18.319Z,9.15
2018-06-18T04:01:38.216Z,9.80
2018-06-18T04:02:55.946Z,7.90
2018-06-18T04:04:07.822Z,9.33
2018-06-18T04:05:17.136Z,9.13
2018-06-18T04:06:26.375Z,8.03
2018-06-18T04:07:36.751Z,8.90
2018-06-18T04:08:40.808Z,8.45
2018-06-18T04:09:50.385Z,8.60
2018-06-18T04:16:23.290Z,7.45
2018-06-18T04:17:27.402Z,7.92
2018-06-18T04:18:31.443Z,8.85
2018-06-18T04:19:35.513Z,9.05
2018-06-18T04:20:43.521Z,8.70
2018-06-18T04:21:47.550Z,8.80
2018-06-18T04:22:51.592Z,7.97
2018-06-18T04:23:55.577Z,9.08
2018-06-18T04:24:59.587Z,7.65
2018-06-18T04:26:03.637Z,8.70
2018-06-18T04:27:07.658Z,9.03
2018-06-18T04:28:12.139Z,9.10
2018-06-18T04:29:16.213Z,9.93
2018-06-18T04:30:20.221Z,9.43
2018-06-18T04:31:24.243Z,8.83
2018-06-18T04:32:28.304Z,9.23
2018-06-18T04:33:32.324Z,8.55
2018-06-18T04:34:46.971Z,9.63
2018-06-18T04:35:51.185Z,8.95
2018-06-18T04:36:55.590Z,8.38
2018-06-18T04:37:59.624Z,10.25
2018-06-18T04:39:04.253Z,8.88
2018-06-18T04:40:08.772Z,8.20
2018-06-18T04:41:12.794Z,8.20
2018-06-18T04:42:22.364Z,8.65
2018-06-18T04:43:31.791Z,8.53
2018-06-18T04:44:41.131Z,9.23
2018-06-18T04:45:47.045Z,8.78
2018-06-18T04:46:56.504Z,9.53
2018-06-18T04:48:05.818Z,8.15
2018-06-18T04:49:15.295Z,7.05
2018-06-18T04:50:24.812Z,7.62
2018-06-18T04:51:28.878Z,7.72
2018-06-18T04:52:32.920Z,7.50
2018-06-18T04:53:37.000Z,7.83
2018-06-18T04:54:41.289Z,7.22
2018-06-18T04:55:45.286Z,7.37
2018-06-18T04:56:49.387Z,8.15
2018-06-18T04:57:53.502Z,8.35
2018-06-18T04:58:57.682Z,6.95
2018-06-18T05:00:21.382Z,7.83
2018-06-18T05:01:28.913Z,7.47
2018-06-18T05:02:32.967Z,6.58
2018-06-18T05:03:37.036Z,7.28
2018-06-18T05:04:41.071Z,6.85
2018-06-18T05:05:45.119Z,7.28
2018-06-18T05:06:49.135Z,7.45
2018-06-18T05:07:57.810Z,8.18
2018-06-18T05:09:14.518Z,7.75
2018-06-18T05:10:23.578Z,8.55
2018-06-18T05:11:27.648Z,7.35
2018-06-18T05:12:31.687Z,8.28
2018-06-18T05:13:35.757Z,7.55
2018-06-18T05:14:39.794Z,7.75
2018-06-18T05:15:44.754Z,7.05
2018-06-18T05:16:49.066Z,8.28
2018-06-18T05:17:53.122Z,8.05
2018-06-18T05:18:57.135Z,6.50
2018-06-18T05:20:01.155Z,7.80
2018-06-18T05:21:05.204Z,7.65
2018-06-18T05:22:09.254Z,7.35
2018-06-18T05:23:17.626Z,7.12
2018-06-18T05:24:21.618Z,8.08
2018-06-18T05:25:26.034Z,7.97
2018-06-18T05:26:30.593Z,6.87
2018-06-18T05:27:35.095Z,6.78
2018-06-18T05:28:39.090Z,7.33
2018-06-18T05:29:43.297Z,7.37
2018-06-18T05:30:47.303Z,7.37
2018-06-18T05:31:51.493Z,7.40
2018-06-18T05:32:55.526Z,8.80
2018-06-18T05:33:59.522Z,6.58
2018-06-18T05:35:03.580Z,7.20
2018-06-18T05:36:07.629Z,7.20
2018-06-18T05:37:14.798Z,7.78
2018-06-18T05:38:29.845Z,7.30
2018-06-18T05:39:33.843Z,7.50
2018-06-18T05:40:38.034Z,7.40
2018-06-18T05:41:42.868Z,8.05
2018-06-18T05:42:46.891Z,7.22
2018-06-18T05:43:51.129Z,8.28
2018-06-18T05:44:55.232Z,7.60
2018-06-18T05:45:59.438Z,7.80
2018-06-18T05:47:03.486Z,7.40
2018-06-18T05:48:07.543Z,8.20
2018-06-18T05:49:11.594Z,7.83
2018-06-18T05:50:15.605Z,8.43
2018-06-18T05:51:19.692Z,8.28
2018-06-18T05:52:23.848Z,8.38
2018-06-18T05:53:27.886Z,7.42
2018-06-18T05:54:31.910Z,8.65
2018-06-18T05:55:35.980Z,8.55
2018-06-18T05:56:40.022Z,8.78
2018-06-18T05:57:44.082Z,7.97
2018-06-18T05:58:48.103Z,7.55
2018-06-18T05:59:52.146Z,8.10
2018-06-18T06:00:56.197Z,7.75
2018-06-18T06:02:00.280Z,8.38
2018-06-18T06:03:04.293Z,7.58
2018-06-18T06:04:08.359Z,7.58
2018-06-18T06:05:12.394Z,8.78
2018-06-18T06:06:16.478Z,7.70
2018-06-18T06:07:20.539Z,6.80
2018-06-18T06:08:24.679Z,6.65
2018-06-18T06:09:28.730Z,7.95
2018-06-18T06:10:32.816Z,6.40
2018-06-18T06:11:36.925Z,6.22
2018-06-18T06:12:41.016Z,7.22
2018-06-18T06:13:45.129Z,6.87
2018-06-18T06:14:49.076Z,6.72
2018-06-18T06:15:53.096Z,6.80
2018-06-18T06:16:57.233Z,7.05
2018-06-18T06:18:01.105Z,5.75
2018-06-18T06:19:05.543Z,5.85
2018-06-18T06:20:09.792Z,6.53
2018-06-18T06:21:14.738Z,5.65
2018-06-18T06:22:18.901Z,6.20
2018-06-18T06:23:22.907Z,4.87
2018-06-18T06:24:26.992Z,4.78
2018-06-18T06:25:31.089Z,5.37
2018-06-18T06:26:35.128Z,5.08
2018-06-18T06:27:39.260Z,5.50
2018-06-18T06:28:43.319Z,5.53
2018-06-18T06:29:47.381Z,5.78
2018-06-18T06:30:51.442Z,6.72
2018-06-18T06:31:55.522Z,5.83
2018-06-18T06:32:59.569Z,5.53
2018-06-18T06:34:03.675Z,5.42
2018-06-18T06:35:16.192Z,6.40
2018-06-18T06:36:22.426Z,5.95
2018-06-18T06:37:26.903Z,5.58
2018-06-18T06:38:30.967Z,5.90
2018-06-18T06:39:35.092Z,5.17
2018-06-18T06:40:39.248Z,5.85
2018-06-18T06:41:47.058Z,5.22
2018-06-18T06:42:51.206Z,5.92
2018-06-18T06:43:55.218Z,5.17
2018-06-18T06:44:58.977Z,6.83
2018-06-18T06:46:02.901Z,5.85
2018-06-18T06:47:07.042Z,6.05
2018-06-18T06:48:11.094Z,6.45
2018-06-18T06:49:15.158Z,6.42
2018-06-18T06:50:19.229Z,5.87
2018-06-18T06:51:23.267Z,6.92
2018-06-18T06:52:27.364Z,6.40
2018-06-18T06:53:31.443Z,6.03
2018-06-18T06:54:35.459Z,6.47
2018-06-18T06:55:41.005Z,6.25
2018-06-18T06:56:45.063Z,5.40
2018-06-18T06:57:49.146Z,6.50
2018-06-18T06:58:53.178Z,5.40
2018-06-18T06:59:57.952Z,5.90
2018-06-18T07:01:01.967Z,5.50
2018-06-18T07:02:06.176Z,6.12
2018-06-18T07:03:10.284Z,5.90
2018-06-18T07:04:14.290Z,5.83
2018-06-18T07:05:18.621Z,5.90
2018-06-18T07:06:22.651Z,5.55
2018-06-18T07:07:26.687Z,6.65
2018-06-18T07:08:30.680Z,5.78
2018-06-18T07:09:34.702Z,5.92
2018-06-18T07:10:38.898Z,6.20
2018-06-18T07:11:42.975Z,5.25
2018-06-18T07:12:47.011Z,5.20
2018-06-18T07:13:51.044Z,5.50
2018-06-18T07:14:55.157Z,5.60
2018-06-18T07:15:59.205Z,5.58
2018-06-18T07:17:03.293Z,5.30
2018-06-18T07:18:07.498Z,5.72
2018-06-18T07:19:11.574Z,5.60
2018-06-18T07:20:15.610Z,5.45
2018-06-18T07:21:19.638Z,5.65
2018-06-18T07:22:23.659Z,5.97
2018-06-18T07:23:27.720Z,5.80
2018-06-18T07:24:31.778Z,4.95
2018-06-18T07:25:35.827Z,5.40
2018-06-18T07:26:39.881Z,4.92
2018-06-18T07:27:44.333Z,5.20
2018-06-18T07:28:48.328Z,5.47
2018-06-18T07:29:52.539Z,4.67
2018-06-18T07:30:56.583Z,4.78
2018-06-18T07:32:00.635Z,5.15
2018-06-18T07:33:04.653Z,5.15
2018-06-18T07:34:08.677Z,5.20
2018-06-18T07:35:12.666Z,5.60
2018-06-18T07:36:16.708Z,5.80
2018-06-18T07:37:20.767Z,5.50
2018-06-18T07:38:24.898Z,5.28
2018-06-18T07:39:28.923Z,5.50
2018-06-18T07:40:33.048Z,5.92
2018-06-18T07:41:37.271Z,6.12
2018-06-18T07:42:47.610Z,5.45
2018-06-18T07:43:51.660Z,5.83
2018-06-18T07:44:55.790Z,5.50
2018-06-18T07:45:59.835Z,5.60
2018-06-18T07:47:03.869Z,5.03
2018-06-18T07:48:07.952Z,4.95
2018-06-18T07:49:12.146Z,5.60
2018-06-18T07:50:16.380Z,5.75
2018-06-18T07:51:20.459Z,5.62
2018-06-18T07:52:24.542Z,5.67
2018-06-18T07:53:28.591Z,5.97
2018-06-18T07:54:32.683Z,5.95
2018-06-18T07:55:36.888Z,4.87
2018-06-18T07:56:41.145Z,5.65
2018-06-18T07:57:45.255Z,5.53
2018-06-18T07:58:49.280Z,5.20
2018-06-18T07:59:53.321Z,4.67
2018-06-18T08:00:57.375Z,5.78
2018-06-18T08:02:01.401Z,5.45
2018-06-18T08:03:05.921Z,5.05
2018-06-18T08:04:09.908Z,4.85
2018-06-18T08:05:13.916Z,5.37
2018-06-18T08:06:18.003Z,5.47
2018-06-18T08:07:22.051Z,5.80
2018-06-18T08:08:26.099Z,5.67
2018-06-18T08:09:30.116Z,5.92
2018-06-18T08:10:34.148Z,5.22
2018-06-18T08:11:37.903Z,5.40
2018-06-18T08:12:41.821Z,5.25
2018-06-18T08:13:45.840Z,4.35
2018-06-18T08:14:49.986Z,5.10
2018-06-18T08:15:54.105Z,4.95
2018-06-18T08:16:58.155Z,5.78
2018-06-18T08:18:02.178Z,5.35
2018-06-18T08:19:06.255Z,4.78
2018-06-18T08:20:10.314Z,5.35
2018-06-18T08:21:14.483Z,4.80
2018-06-18T08:22:18.473Z,5.05
2018-06-18T08:23:22.504Z,4.60
2018-06-18T08:24:26.564Z,4.80
2018-06-18T08:25:30.594Z,5.22
2018-06-18T08:26:34.619Z,4.60
2018-06-18T08:27:38.647Z,5.28
2018-06-18T08:28:42.460Z,5.30
2018-06-18T08:29:46.405Z,5.37
2018-06-18T08:30:50.441Z,5.25
2018-06-18T08:31:54.491Z,5.00
2018-06-18T08:32:58.586Z,5.40
2018-06-18T08:34:02.702Z,5.40
2018-06-18T08:35:06.713Z,4.75
2018-06-18T08:36:10.732Z,4.65
2018-06-18T08:37:15.347Z,4.78
2018-06-18T08:38:19.397Z,5.03
2018-06-18T08:39:23.386Z,5.15
2018-06-18T08:40:27.113Z,4.90
2018-06-18T08:41:31.009Z,4.10
2018-06-18T08:42:35.043Z,5.30
2018-06-18T08:43:39.082Z,5.10
2018-06-18T08:44:43.079Z,5.05
2018-06-18T08:45:47.250Z,4.75
2018-06-18T08:46:51.303Z,5.35
2018-06-18T08:47:55.333Z,4.78
2018-06-18T08:49:07.016Z,5.58
2018-06-18T08:50:16.360Z,5.28
2018-06-18T08:51:25.699Z,5.30
2018-06-18T08:52:35.259Z,5.08
2018-06-18T08:53:44.643Z,4.80
2018-06-18T08:54:54.083Z,5.40
2018-06-18T08:56:03.472Z,5.25
2018-06-18T08:57:13.097Z,4.83
2018-06-18T08:58:22.717Z,5.40
2018-06-18T08:59:32.086Z,6.05
2018-06-18T09:00:41.691Z,5.17
2018-06-18T09:01:46.464Z,4.90
2018-06-18T09:02:55.821Z,5.85
2018-06-18T09:04:05.324Z,5.35
2018-06-18T09:05:11.315Z,5.22
2018-06-18T09:06:15.360Z,5.70
2018-06-18T09:07:23.580Z,5.42
2018-06-18T09:08:31.810Z,5.33
2018-06-18T09:09:35.823Z,5.35
2018-06-18T09:10:40.129Z,5.42
2018-06-18T09:11:44.134Z,5.92
2018-06-18T09:12:48.196Z,6.03
2018-06-18T09:13:52.239Z,6.20
2018-06-18T09:14:56.252Z,6.30
2018-06-18T09:16:00.290Z,5.92
2018-06-18T09:17:04.530Z,6.20
2018-06-18T09:18:08.590Z,6.78
2018-06-18T09:19:12.651Z,5.80
2018-06-18T09:20:16.705Z,6.28
2018-06-18T09:21:20.732Z,6.17
2018-06-18T09:22:24.760Z,7.60
2018-06-18T09:23:28.871Z,5.95
2018-06-18T09:24:32.875Z,6.12
2018-06-18T09:25:41.703Z,6.17
2018-06-18T09:26:45.739Z,6.30
2018-06-18T09:27:49.820Z,6.92
2018-06-18T09:28:53.945Z,7.80
2018-06-18T09:30:03.624Z,6.83
2018-06-18T09:31:07.670Z,6.10
2018-06-18T09:32:14.028Z,7.28
2018-06-18T09:33:17.933Z,6.33
2018-06-18T09:34:21.931Z,6.90
2018-06-18T09:35:25.979Z,6.65
2018-06-18T09:36:29.995Z,8.10
2018-06-18T09:37:34.177Z,6.47
2018-06-18T09:38:38.257Z,7.00
2018-06-18T09:39:42.215Z,7.05
2018-06-18T09:40:46.287Z,6.42
2018-06-18T09:41:50.298Z,5.75
2018-06-18T09:42:54.342Z,6.47
2018-06-18T09:43:58.416Z,6.65
2018-06-18T09:45:02.946Z,6.35
2018-06-18T09:46:07.014Z,5.75
2018-06-18T09:47:14.115Z,6.72
2018-06-18T09:48:18.286Z,6.12
2018-06-18T09:49:27.618Z,6.90
2018-06-18T09:50:36.955Z,5.78
2018-06-18T09:51:46.261Z,5.78
2018-06-18T09:52:55.640Z,6.08
2018-06-18T09:54:05.040Z,5.80
2018-06-18T09:55:14.566Z,6.17
2018-06-18T09:56:24.103Z,6.00
2018-06-18T09:57:33.785Z,6.00
2018-06-18T09:58:43.144Z,6.25
2018-06-18T09:59:52.642Z,6.58
2018-06-18T10:01:22.831Z,5.80
2018-06-18T10:02:27.650Z,6.33
2018-06-18T10:03:32.351Z,6.55
2018-06-18T10:04:36.402Z,7.35
2018-06-18T10:05:40.460Z,7.17
2018-06-18T10:06:44.546Z,6.20
2018-06-18T10:07:48.593Z,6.22
2018-06-18T10:08:52.618Z,6.60
2018-06-18T10:09:57.078Z,6.12
2018-06-18T10:11:01.136Z,6.08
2018-06-18T10:12:05.174Z,6.15
2018-06-18T10:13:09.275Z,6.03
2018-06-18T10:14:13.336Z,5.62
2018-06-18T10:15:17.097Z,6.17
2018-06-18T10:16:21.013Z,6.70
2018-06-18T10:17:25.069Z,5.90
2018-06-18T10:18:29.086Z,5.65
2018-06-18T10:19:33.114Z,5.53
2018-06-18T10:20:37.158Z,5.95
2018-06-18T10:21:41.218Z,6.00
2018-06-18T10:22:45.262Z,7.05
2018-06-18T10:23:49.283Z,6.65
2018-06-18T10:24:53.292Z,7.08
2018-06-18T10:25:57.541Z,7.00
2018-06-18T10:27:01.720Z,5.75
2018-06-18T10:28:06.083Z,6.10
2018-06-18T10:29:10.267Z,5.90
2018-06-18T10:30:14.338Z,5.70
2018-06-18T10:31:18.516Z,6.95
2018-06-18T10:32:28.046Z,6.40
2018-06-18T10:33:37.508Z,5.97
2018-06-18T10:34:46.931Z,6.05
2018-06-18T10:35:56.327Z,6.53
2018-06-18T10:37:05.679Z,6.80
2018-06-18T10:38:15.196Z,6.70
2018-06-18T10:39:24.690Z,6.50
2018-06-18T10:40:34.047Z,5.62
2018-06-18T10:41:43.456Z,5.62
2018-06-18T10:42:53.039Z,6.47
2018-06-18T10:43:56.773Z,5.62
2018-06-18T10:45:00.742Z,5.80
2018-06-18T10:46:04.850Z,5.50
2018-06-18T10:47:08.883Z,6.00
2018-06-18T10:48:13.031Z,4.75
2018-06-18T10:49:17.103Z,5.55
2018-06-18T10:50:21.192Z,5.60
2018-06-18T10:51:25.276Z,6.87
2018-06-18T10:52:28.967Z,5.95
2018-06-18T10:53:32.931Z,6.42
2018-06-18T10:54:36.935Z,5.62
2018-06-18T10:55:41.090Z,5.45
2018-06-18T10:56:45.124Z,4.80
2018-06-18T10:57:49.115Z,5.22
2018-06-18T10:58:53.135Z,5.65
2018-06-18T10:59:57.210Z,5.28
2018-06-18T11:01:04.371Z,4.95
2018-06-18T11:02:08.434Z,5.65
2018-06-18T11:03:12.536Z,6.40
2018-06-18T11:04:34.098Z,5.47
2018-06-18T11:05:43.473Z,5.65
2018-06-18T11:06:47.511Z,5.20
2018-06-18T11:07:51.565Z,5.10
2018-06-18T11:08:55.575Z,6.15
2018-06-18T11:09:59.660Z,5.30
2018-06-18T11:11:03.838Z,5.78
2018-06-18T11:12:07.970Z,5.67
2018-06-18T11:13:12.024Z,4.90
2018-06-18T11:14:16.115Z,4.92
2018-06-18T11:15:20.268Z,5.50
2018-06-18T11:16:24.367Z,4.85
2018-06-18T11:17:33.819Z,4.60
2018-06-18T11:18:43.227Z,4.12
2018-06-18T11:19:52.685Z,5.05
2018-06-18T11:21:01.963Z,4.67
2018-06-18T11:22:07.527Z,4.53
2018-06-18T11:23:17.054Z,4.97
2018-06-18T11:24:26.677Z,5.22
2018-06-18T11:25:36.027Z,3.92
2018-06-18T11:27:00.585Z,4.70
2018-06-18T11:28:04.833Z,4.90
2018-06-18T11:29:09.100Z,4.35
2018-06-18T11:30:13.406Z,4.97
2018-06-18T11:31:17.477Z,4.20
2018-06-18T11:32:21.577Z,4.83
2018-06-18T11:33:25.603Z,4.35
2018-06-18T11:34:29.615Z,5.70
2018-06-18T11:35:33.690Z,5.20
2018-06-18T11:36:37.718Z,4.95
2018-06-18T11:37:41.799Z,4.72
2018-06-18T11:38:45.842Z,4.50
2018-06-18T11:39:49.872Z,4.40
2018-06-18T11:40:54.056Z,4.85
2018-06-18T11:41:57.856Z,5.35
2018-06-18T11:43:01.769Z,4.12
2018-06-18T11:44:06.038Z,4.30
2018-06-18T11:45:10.085Z,4.20
2018-06-18T11:46:14.238Z,3.83
2018-06-18T11:47:18.363Z,4.55
2018-06-18T11:48:22.779Z,4.30
2018-06-18T11:49:26.823Z,3.95
2018-06-18T11:50:30.822Z,3.83
2018-06-18T11:51:34.837Z,4.20
2018-06-18T11:52:38.867Z,4.42
2018-06-18T11:53:42.984Z,4.65
2018-06-18T11:54:46.998Z,4.72
2018-06-18T11:55:51.018Z,4.22
2018-06-18T11:56:55.038Z,4.25
2018-06-18T11:57:59.291Z,4.47
2018-06-18T11:59:08.637Z,4.70
2018-06-18T12:00:18.044Z,4.67
2018-06-18T12:01:27.465Z,4.40
2018-06-18T12:02:36.971Z,4.78
2018-06-18T12:03:46.343Z,3.77
2018-06-18T12:04:55.889Z,4.25
2018-06-18T12:06:05.228Z,4.10
2018-06-18T12:07:14.834Z,4.25
2018-06-18T12:08:24.145Z,4.90
2018-06-18T12:09:29.463Z,4.35
2018-06-18T12:10:33.504Z,3.70
2018-06-18T12:11:37.586Z,3.90
2018-06-18T12:12:41.403Z,4.60
2018-06-18T12:13:45.368Z,3.90
2018-06-18T12:14:49.458Z,3.95
2018-06-18T12:15:53.604Z,4.37
2018-06-18T12:16:57.672Z,4.10
2018-06-18T12:18:01.703Z,4.80
2018-06-18T12:19:06.257Z,4.95
2018-06-18T12:20:10.282Z,4.70
2018-06-18T12:21:14.282Z,3.67
2018-06-18T12:22:18.373Z,4.50
2018-06-18T12:23:22.359Z,3.87
2018-06-18T12:24:26.385Z,4.47
2018-06-18T12:25:30.798Z,3.87
2018-06-18T12:26:34.957Z,4.05
2018-06-18T12:27:39.003Z,4.00
2018-06-18T12:28:43.071Z,4.35
2018-06-18T12:29:47.083Z,4.58
2018-06-18T12:30:51.106Z,4.20
2018-06-18T12:31:55.168Z,4.40
2018-06-18T12:32:59.167Z,4.20
2018-06-18T12:34:03.217Z,4.00
2018-06-18T12:35:07.252Z,3.45
2018-06-18T12:36:11.256Z,4.78
2018-06-18T12:37:15.462Z,3.87
2018-06-18T12:38:19.480Z,3.70
2018-06-18T12:39:23.583Z,4.20
2018-06-18T12:40:27.567Z,4.15
2018-06-18T12:41:31.639Z,3.40
2018-06-18T12:42:35.671Z,4.72
2018-06-18T12:43:41.853Z,3.90
2018-06-18T12:45:52.255Z,3.98
2018-06-18T12:47:01.566Z,4.08
2018-06-18T12:48:11.416Z,4.25
2018-06-18T12:49:20.763Z,4.42
2018-06-18T12:50:30.185Z,4.30
2018-06-18T12:51:39.481Z,4.35
2018-06-18T12:52:48.946Z,4.17
2018-06-18T12:53:58.336Z,4.20
2018-06-18T12:55:07.650Z,4.00
2018-06-18T12:56:17.001Z,4.17
2018-06-18T12:57:21.128Z,3.90
2018-06-18T12:58:25.181Z,4.40
2018-06-18T12:59:29.425Z,3.83
2018-06-18T13:00:33.426Z,4.40
2018-06-18T13:01:39.799Z,4.22
2018-06-18T13:02:47.753Z,4.15
2018-06-18T13:03:51.731Z,4.35
2018-06-18T13:04:58.037Z,4.83
2018-06-18T13:06:02.061Z,4.20
2018-06-18T13:07:06.088Z,3.67
2018-06-18T13:08:10.148Z,4.30
2018-06-18T13:09:14.283Z,3.85
2018-06-18T13:10:18.262Z,4.30
2018-06-18T13:11:22.284Z,4.25
2018-06-18T13:12:26.709Z,4.12
2018-06-18T13:13:30.755Z,4.05
2018-06-18T13:14:34.757Z,3.95
2018-06-18T13:15:38.874Z,3.42
2018-06-18T13:16:42.872Z,3.60
2018-06-18T13:17:47.031Z,4.30
2018-06-18T13:18:51.079Z,3.60
2018-06-18T13:19:55.127Z,3.95
2018-06-18T13:20:59.172Z,3.67
2018-06-18T13:22:03.217Z,4.08
2018-06-18T13:23:07.291Z,4.28
2018-06-18T13:24:11.393Z,4.58
2018-06-18T13:25:15.455Z,4.50
2018-06-18T13:26:19.451Z,3.80
2018-06-18T13:27:28.872Z,4.40
2018-06-18T13:28:32.866Z,4.67
2018-06-18T13:29:36.913Z,4.25
2018-06-18T13:30:40.961Z,4.58
2018-06-18T13:31:45.036Z,4.33
2018-06-18T13:32:49.070Z,4.58
2018-06-18T13:33:53.116Z,3.70
2018-06-18T13:34:57.124Z,3.27
2018-06-18T13:36:01.151Z,4.00
2018-06-18T13:37:10.716Z,4.35
2018-06-18T13:38:19.928Z,4.05
2018-06-18T13:39:29.513Z,4.50
2018-06-18T13:40:38.888Z,3.87
2018-06-18T13:41:48.286Z,4.12
2018-06-18T13:42:57.734Z,4.40
2018-06-18T13:44:07.301Z,4.20
2018-06-18T13:45:16.662Z,3.80
2018-06-18T13:46:25.785Z,3.22
2018-06-18T13:47:35.109Z,3.95
2018-06-18T13:48:44.744Z,3.90
2018-06-18T13:49:56.064Z,3.80
2018-06-18T13:51:00.217Z,3.70
2018-06-18T13:52:04.337Z,4.72
2018-06-18T13:53:08.439Z,3.62
2018-06-18T13:54:12.519Z,3.70
2018-06-18T13:55:16.620Z,3.75
2018-06-18T13:56:20.688Z,3.67
2018-06-18T13:57:25.200Z,3.70
2018-06-18T13:58:29.272Z,3.72
2018-06-18T13:59:33.305Z,4.37
2018-06-18T14:00:37.543Z,3.77
2018-06-18T14:01:41.852Z,4.10
2018-06-18T14:02:45.847Z,3.83
2018-06-18T14:03:49.965Z,4.50
2018-06-18T14:04:57.019Z,4.30
2018-06-18T14:06:01.039Z,4.50
2018-06-18T14:07:05.108Z,3.90
2018-06-18T14:08:09.178Z,4.30
2018-06-18T14:09:13.201Z,3.83
2018-06-18T14:10:17.357Z,4.45
2018-06-18T14:11:21.489Z,4.37
2018-06-18T14:12:25.594Z,4.70
2018-06-18T14:13:29.678Z,4.70
2018-06-18T14:14:33.764Z,4.03
2018-06-18T14:15:37.829Z,3.40
2018-06-18T14:16:41.855Z,4.55
2018-06-18T14:17:45.910Z,3.55
2018-06-18T14:18:49.913Z,3.45
2018-06-18T14:19:59.463Z,4.00
2018-06-18T14:21:03.540Z,3.08
2018-06-18T14:22:07.543Z,4.20
2018-06-18T14:23:11.599Z,4.00
2018-06-18T14:24:15.618Z,3.85
2018-06-18T14:25:19.727Z,4.30
2018-06-18T14:26:23.724Z,4.10
2018-06-18T14:27:27.857Z,3.67
2018-06-18T14:28:31.861Z,4.00
2018-06-18T14:29:41.243Z,3.50
2018-06-18T14:30:50.611Z,3.10
2018-06-18T14:31:55.739Z,3.02
2018-06-18T14:33:05.171Z,3.47
2018-06-18T14:34:14.782Z,3.70
2018-06-18T14:35:24.353Z,3.45
2018-06-18T14:36:33.873Z,3.30